CYLL

Lloydminster Airport

Airport
ICAO code
CYLL
IATA Code
YLL
Summary
ICAO Region
NAM
ICAO Territory
Location

Lloydminster, Alberta,

Serving
Lloydminster
Elevation
2194 ft
Coordinates
53° 18' 34" N , 110° 4' 22" W
KCC
Airport CFIT
Altimeter Temperature Error Correction
Metar
Observation
CYLL 280440Z 32024G32KT 1 1/2SM -SN DRSN OVC015 M08/M10 A2949 RMK SC8 SLP028
Station
Lloydminister, Alta.
Date/Time
2022-11-28 04:40:00
Wind direction
320°
Wind speed
24 kts
Lowest cloud amount
overcast
Temperature
-8°C
Dew point
-10°C
Humidity
85%
Weather condition
light drifting

Description

Lloydminster Airport, (IATA: YLL), is located 2 nm northwest of Lloydminster, Alberta, Canada.

Climatology

Humid Continental climate (Köppen climate classification Dfb) - Variable weather patterns and a large seasonal temperature variance. Summers are often warm and humid with frequent thunderstorms and winters can be very cold with frequent snowfall and persistent snow cover.

Runways

Designator Length Width Surface Rops
11/29 457 30 GRS No/No
8/26 1700 46 ASP Yes/Yes

Airport map

Aerial View

SKYbrary Partners:

Safety knowledge contributed by: